Time;durP1;ratioP1;P1;durP2;ratioP2;P2;SDS_P1;SDS_P2;PMS_P1;PMS_P2;Temp;Humidity;BMP_temperature;BMP_pressure;BME280_temperature;BME280_humidity;BME280_pressure;Samples;Min_cycle;Max_cycle;Signal;HPM_P1;HPM_P2
2022/01/02 00:00:45;;;;;;;24.15;14.95;;;;;;;9.58;100.00;100392.09;5069297;28;20136;-77
2022/01/02 00:03:35;;;;;;;27.83;16.33;;;;;;;9.53;100.00;100381.69;5068962;28;20364;-77
2022/01/02 00:06:24;;;;;;;31.17;18.20;;;;;;;9.55;100.00;100379.94;5098178;28;20036;-77
2022/01/02 00:09:09;;;;;;;36.97;18.85;;;;;;;9.51;100.00;100366.91;5098048;28;20040;-77
2022/01/02 00:12:01;;;;;;;33.78;19.55;;;;;;;9.52;100.00;100366.91;5082997;28;20105;-77
2022/01/02 00:14:48;;;;;;;30.60;17.33;;;;;;;9.54;100.00;100372.94;5068984;28;20044;-77
2022/01/02 00:17:32;;;;;;;30.92;17.75;;;;;;;9.51;100.00;100361.66;5097798;28;20574;-77
2022/01/02 00:20:31;;;;;;;27.83;17.45;;;;;;;9.54;100.00;100356.41;5082856;28;20044;-77
2022/01/02 00:23:21;;;;;;;30.67;18.00;;;;;;;9.48;100.00;100338.16;5082798;28;20333;-77
2022/01/02 00:26:15;;;;;;;29.65;18.50;;;;;;;9.50;100.00;100341.63;5082762;28;20035;-78
2022/01/02 00:29:00;;;;;;;29.92;18.70;;;;;;;9.45;100.00;100344.28;5082819;28;20048;-77
2022/01/02 00:31:47;;;;;;;25.75;17.48;;;;;;;9.47;100.00;100354.75;5097018;28;20040;-77
2022/01/02 00:34:33;;;;;;;26.58;17.17;;;;;;;9.44;100.00;100358.25;5082416;28;20372;-77
2022/01/02 00:37:18;;;;;;;30.25;17.45;;;;;;;9.41;100.00;100352.19;5082550;28;20036;-77
2022/01/02 00:40:03;;;;;;;28.67;17.55;;;;;;;9.40;100.00;100356.56;5068488;28;20428;-77
2022/01/02 00:42:55;;;;;;;29.42;17.40;;;;;;;9.40;100.00;100363.56;5068384;28;20044;-77
2022/01/02 00:45:49;;;;;;;31.75;17.45;;;;;;;9.32;100.00;100340.09;5082300;28;20393;-77
2022/01/02 00:48:38;;;;;;;32.17;18.08;;;;;;;9.37;100.00;100351.38;5068137;28;20044;-77
2022/01/02 00:51:43;;;;;;;26.50;16.02;;;;;;;9.40;100.00;100343.50;5081901;28;20060;-77
2022/01/02 00:54:30;;;;;;;27.80;15.88;;;;;;;9.41;100.00;100342.59;5068187;28;20097;-77
2022/01/02 00:57:17;;;;;;;20.98;14.90;;;;;;;9.42;100.00;100333.00;5097232;28;20036;-77
2022/01/02 01:00:07;;;;;;;24.33;15.88;;;;;;;9.40;100.00;100326.94;5082092;28;20047;-77
2022/01/02 01:02:59;;;;;;;24.42;14.85;;;;;;;9.37;100.00;100314.78;5082028;28;20044;-77
2022/01/02 01:05:45;;;;;;;32.45;17.17;;;;;;;9.20;100.00;100304.53;5081910;28;20068;-76
2022/01/02 01:08:32;;;;;;;25.83;15.38;;;;;;;9.23;100.00;100309.72;5110519;28;20118;-77
2022/01/02 01:11:17;;;;;;;23.90;14.23;;;;;;;9.14;100.00;100315.03;5096149;28;20121;-76
2022/01/02 01:14:02;;;;;;;20.42;13.18;;;;;;;9.23;100.00;100314.94;5095999;28;20036;-77
2022/01/02 01:16:47;;;;;;;36.08;15.25;;;;;;;9.20;100.00;100314.13;5067777;28;20383;-77
2022/01/02 01:19:36;;;;;;;30.63;16.98;;;;;;;9.12;100.00;100314.19;5093260;28;20083;-77
2022/01/02 01:22:21;;;;;;;30.02;18.88;;;;;;;9.02;100.00;100313.41;5110171;28;20040;-77
2022/01/02 01:25:13;;;;;;;26.50;15.98;;;;;;;9.13;100.00;100326.34;5081689;28;20145;-77
2022/01/02 01:27:58;;;;;;;29.15;15.52;;;;;;;9.18;100.00;100324.56;5081512;28;20044;-77
2022/01/02 01:30:43;;;;;;;55.97;25.17;;;;;;;9.11;100.00;100338.59;5081710;28;20052;-77
2022/01/02 01:33:28;;;;;;;53.30;27.42;;;;;;;9.06;100.00;100330.78;5067538;28;20109;-77
2022/01/02 01:36:12;;;;;;;45.97;24.42;;;;;;;9.14;100.00;100333.34;5081494;28;20376;-77
2022/01/02 01:38:57;;;;;;;37.25;20.58;;;;;;;9.22;100.00;100317.56;5084142;28;20052;-77
2022/01/02 01:41:42;;;;;;;38.35;21.40;;;;;;;9.20;100.00;100309.75;5081310;28;20044;-77
2022/01/02 01:44:39;;;;;;;47.67;22.55;;;;;;;9.23;100.00;100295.75;5081279;28;20044;-77
2022/01/02 01:47:24;;;;;;;73.45;27.90;;;;;;;9.21;100.00;100295.78;5081213;28;20036;-77
2022/01/02 01:50:09;;;;;;;64.25;25.13;;;;;;;9.20;100.00;100285.38;5067188;28;20051;-77
2022/01/02 01:52:54;;;;;;;45.38;22.30;;;;;;;9.24;100.00;100280.06;5096001;28;20044;-77
2022/01/02 01:55:40;;;;;;;32.47;18.50;;;;;;;9.27;100.00;100276.56;5081155;28;20036;-77
2022/01/02 01:58:25;;;;;;;33.85;17.50;;;;;;;9.16;100.00;100247.91;5081164;28;20097;-77
2022/01/02 02:01:09;;;;;;;23.70;13.98;;;;;;;9.28;100.00;100266.06;5081318;28;20040;-77
2022/01/02 02:04:04;;;;;;;25.77;14.05;;;;;;;9.23;100.00;100262.66;5109699;28;20421;-77
2022/01/02 02:06:49;;;;;;;24.38;14.45;;;;;;;9.21;100.00;100259.19;5067112;28;20040;-77
2022/01/02 02:10:10;;;;;;;31.55;15.48;;;;;;;9.16;100.00;100245.31;5067225;28;20060;-77
2022/01/02 02:12:46;;;;;;;27.65;15.85;;;;;;;9.18;100.00;100247.91;5080892;28;20052;-77
2022/01/02 02:15:33;;;;;;;26.65;15.48;;;;;;;9.15;100.00;100251.44;5081035;28;20089;-78
2022/01/02 02:18:18;;;;;;;37.60;18.27;;;;;;;9.00;100.00;100249.88;5081105;28;20036;-77
2022/01/02 02:21:03;;;;;;;29.35;15.60;;;;;;;9.04;100.00;100261.16;5095970;28;20433;-77
2022/01/02 02:23:50;;;;;;;30.98;18.67;;;;;;;8.98;100.00;100259.47;5080947;28;20044;-78
2022/01/02 02:26:37;;;;;;;27.83;15.63;;;;;;;8.99;100.00;100255.09;5084948;28;20040;-77
2022/01/02 02:29:22;;;;;;;35.08;18.00;;;;;;;8.86;100.00;100230.88;5084992;28;20036;-77
2022/01/02 02:32:06;;;;;;;33.97;18.15;;;;;;;8.91;100.00;100243.91;5113512;28;20050;-77
2022/01/02 02:34:52;;;;;;;35.05;18.25;;;;;;;8.87;100.00;100238.72;5084975;28;20051;-77
2022/01/02 02:37:44;;;;;;;69.53;21.65;;;;;;;8.79;100.00;100243.13;5084730;28;20321;-77
2022/01/02 02:40:32;;;;;;;43.53;18.48;;;;;;;8.75;100.00;100224.91;5084676;28;20036;-77
2022/01/02 02:43:28;;;;;;;48.08;18.90;;;;;;;8.74;100.00;100224.06;5084630;28;20043;-77
2022/01/02 02:49:24;;;;;;;40.47;17.95;;;;;;;8.59;100.00;100183.28;5084504;28;20071;-77
2022/01/02 02:52:19;;;;;;;71.22;18.42;;;;;;;8.58;100.00;100197.25;5070400;28;20444;-77
2022/01/02 02:55:04;;;;;;;32.42;17.30;;;;;;;8.36;100.00;100190.47;5070396;28;20115;-77
2022/01/02 02:57:57;;;;;;;109.55;19.00;;;;;;;8.31;100.00;100193.09;5084411;28;20436;-77
2022/01/02 03:00:42;;;;;;;33.40;16.52;;;;;;;8.23;100.00;100197.56;5112972;28;20074;-77
2022/01/02 03:03:27;;;;;;;29.80;15.85;;;;;;;8.10;100.00;100188.13;5084279;28;20044;-77
2022/01/02 03:06:13;;;;;;;22.23;13.50;;;;;;;8.15;100.00;100201.97;5084304;28;20040;-77
2022/01/02 03:09:05;;;;;;;26.48;13.50;;;;;;;8.10;100.00;100190.72;5084232;28;20037;-77
2022/01/02 03:11:50;;;;;;;21.08;11.93;;;;;;;8.06;100.00;100195.09;5067296;28;20056;-77
2022/01/02 03:14:35;;;;;;;17.23;11.13;;;;;;;8.01;100.00;100196.88;5083998;28;20052;-77
2022/01/02 03:17:20;;;;;;;21.95;11.98;;;;;;;7.94;100.00;100193.44;5069970;28;20051;-77
2022/01/02 03:20:04;;;;;;;32.85;14.40;;;;;;;7.78;100.00;100196.19;5084069;28;20040;-77
2022/01/02 03:22:49;;;;;;;22.50;12.85;;;;;;;7.85;100.00;100197.88;5084050;28;20448;-77
2022/01/02 03:25:33;;;;;;;19.90;12.50;;;;;;;7.64;100.00;100173.69;5083904;28;20052;-77
2022/01/02 03:28:17;;;;;;;22.08;12.38;;;;;;;7.63;100.00;100181.50;5083840;28;20040;-78
2022/01/02 03:31:03;;;;;;;23.92;11.20;;;;;;;7.62;100.00;100179.78;5083953;28;20044;-77
2022/01/02 03:33:50;;;;;;;17.77;11.63;;;;;;;7.49;100.00;100165.97;5083857;28;20040;-77
2022/01/02 03:36:35;;;;;;;19.13;12.15;;;;;;;7.51;100.00;100151.22;5082871;28;20044;-77
2022/01/02 03:39:19;;;;;;;21.38;11.68;;;;;;;7.45;100.00;100133.88;5069643;28;20115;-77
2022/01/02 03:42:05;;;;;;;22.02;11.23;;;;;;;7.40;100.00;100125.19;5086430;28;20055;-77
2022/01/02 03:44:49;;;;;;;25.30;11.40;;;;;;;7.34;100.00;100116.56;5098570;28;20036;-77
2022/01/02 03:47:34;;;;;;;45.15;10.65;;;;;;;7.31;100.00;100109.63;5083437;28;20043;-77
2022/01/02 03:50:18;;;;;;;20.10;10.80;;;;;;;7.29;100.00;100116.59;5098398;28;20044;-77
2022/01/02 03:53:03;;;;;;;26.02;11.32;;;;;;;7.14;100.00;100104.53;5098282;28;20329;-77
2022/01/02 03:55:47;;;;;;;39.47;13.05;;;;;;;6.96;100.00;100100.31;5095045;28;20079;-77
2022/01/02 03:58:32;;;;;;;20.92;11.85;;;;;;;6.97;100.00;100094.22;5083275;28;20055;-77
2022/01/02 04:01:16;;;;;;;18.27;10.02;;;;;;;6.97;100.00;100099.44;5083271;28;20040;-77
2022/01/02 04:04:01;;;;;;;19.10;10.85;;;;;;;6.96;100.00;100100.31;5098237;28;20040;-77
2022/01/02 04:06:45;;;;;;;20.83;10.85;;;;;;;6.91;100.00;100085.56;5083159;28;20047;-77
2022/01/02 04:09:30;;;;;;;20.67;11.10;;;;;;;6.91;100.00;100085.56;5083128;28;20033;-77
2022/01/02 04:12:15;;;;;;;20.10;11.07;;;;;;;6.83;100.00;100070.00;5068972;28;20044;-77
2022/01/02 04:15:00;;;;;;;23.00;11.20;;;;;;;6.95;100.00;100074.25;5097209;28;20066;-77
2022/01/02 04:17:45;;;;;;;23.95;11.27;;;;;;;6.97;100.00;100060.38;5068883;28;20056;-77
2022/01/02 04:20:31;;;;;;;25.60;13.18;;;;;;;6.90;100.00;100035.25;5111470;28;20052;-77
2022/01/02 04:23:16;;;;;;;27.50;15.00;;;;;;;7.06;100.00;100055.97;5082892;28;20052;-77
2022/01/02 04:26:00;;;;;;;27.52;13.93;;;;;;;7.12;100.00;100055.94;5082885;28;20440;-77
2022/01/02 04:28:45;;;;;;;22.80;13.88;;;;;;;7.12;100.00;100037.72;5082740;28;20504;-77
2022/01/02 04:31:30;;;;;;;25.13;12.38;;;;;;;7.18;100.00;100043.75;5082590;28;20387;-77
2022/01/02 04:34:15;;;;;;;23.58;13.05;;;;;;;7.21;100.00;100035.00;5079889;28;20052;-77
2022/01/02 04:37:00;;;;;;;23.67;12.05;;;;;;;7.25;100.00;100027.19;5097526;28;20432;-77
2022/01/02 04:39:45;;;;;;;19.85;11.43;;;;;;;7.29;100.00;100025.41;5082476;28;20040;-77
2022/01/02 04:42:30;;;;;;;26.13;13.95;;;;;;;7.22;100.00;100013.31;5110970;28;20048;-77
2022/01/02 04:45:14;;;;;;;27.65;15.50;;;;;;;7.24;100.00;100007.19;5068292;28;20039;-77
2022/01/02 04:47:59;;;;;;;21.58;13.07;;;;;;;7.24;100.00;99988.94;5082340;28;20044;-77
2022/01/02 04:50:43;;;;;;;22.33;12.73;;;;;;;7.24;100.00;99994.16;5082012;28;20048;-77
2022/01/02 04:53:30;;;;;;;20.65;12.60;;;;;;;7.29;100.00;99981.13;5082017;28;20047;-77
2022/01/02 04:56:16;;;;;;;18.15;10.70;;;;;;;7.33;100.00;99971.53;5082324;28;20122;-77
2022/01/02 04:59:01;;;;;;;18.95;10.77;;;;;;;7.34;100.00;99974.09;5082043;28;20043;-77
2022/01/02 05:01:46;;;;;;;23.48;12.63;;;;;;;7.32;100.00;99968.06;5067840;28;20044;-77
2022/01/02 05:04:31;;;;;;;25.98;12.82;;;;;;;7.37;100.00;99958.44;5084570;28;20534;-77
2022/01/02 05:07:18;;;;;;;22.60;14.00;;;;;;;7.45;100.00;99954.03;5067937;28;20040;-77
2022/01/02 05:10:04;;;;;;;24.50;14.23;;;;;;;7.41;100.00;99943.63;5081980;28;20040;-77
2022/01/02 05:12:49;;;;;;;20.38;13.50;;;;;;;7.39;100.00;99937.59;5096175;28;20036;-77
2022/01/02 05:15:35;;;;;;;18.02;11.40;;;;;;;7.38;100.00;99936.72;5081812;28;20051;-77
2022/01/02 05:18:19;;;;;;;19.98;11.15;;;;;;;7.39;100.00;99941.06;5099158;28;20062;-77
2022/01/02 05:21:05;;;;;;;17.25;10.82;;;;;;;7.38;100.00;99949.75;5093912;28;20119;-77
2022/01/02 05:23:50;;;;;;;16.42;11.38;;;;;;;7.34;100.00;99968.03;5081659;28;20044;-77
2022/01/02 05:26:36;;;;;;;17.67;10.77;;;;;;;7.31;100.00;99973.25;5081563;28;20456;-77
2022/01/02 05:29:21;;;;;;;25.63;13.32;;;;;;;7.30;100.00;99967.19;5081644;28;20115;-78
2022/01/02 05:32:05;;;;;;;38.55;24.38;;;;;;;7.35;100.00;99980.19;5067598;28;20044;-77
2022/01/02 05:34:50;;;;;;;29.40;20.90;;;;;;;7.18;100.00;99968.19;5095885;28;20060;-77
2022/01/02 05:37:35;;;;;;;18.90;12.95;;;;;;;7.11;100.00;99935.22;5067513;28;20047;-77
2022/01/02 05:40:19;;;;;;;17.80;11.80;;;;;;;7.10;100.00;99930.06;5081451;28;20055;-77
2022/01/02 05:43:06;;;;;;;20.38;11.98;;;;;;;6.98;100.00;99916.25;5081500;28;20055;-77
2022/01/02 05:45:51;;;;;;;17.60;11.88;;;;;;;6.98;100.00;99920.59;5081396;28;20044;-78
2022/01/02 05:48:37;;;;;;;22.70;13.23;;;;;;;6.99;100.00;99914.53;5109892;28;20040;-77
2022/01/02 05:51:22;;;;;;;21.70;13.35;;;;;;;6.96;100.00;99910.19;5081057;28;20056;-78
2022/01/02 05:54:07;;;;;;;21.70;13.02;;;;;;;6.97;100.00;99917.13;5095415;28;20093;-78
2022/01/02 05:56:51;;;;;;;28.13;15.90;;;;;;;6.86;100.00;99910.28;5067115;28;20521;-77
2022/01/02 05:59:39;;;;;;;30.02;19.27;;;;;;;6.86;100.00;99890.34;5080653;28;20101;-78
2022/01/02 06:02:23;;;;;;;24.27;15.05;;;;;;;6.86;100.00;99892.94;5081078;28;20063;-78
2022/01/02 06:05:08;;;;;;;23.70;12.65;;;;;;;6.82;100.00;99885.16;5081136;28;20044;-77
2022/01/02 06:07:53;;;;;;;22.70;13.25;;;;;;;6.77;100.00;99878.25;5081365;28;20061;-77
2022/01/02 06:10:38;;;;;;;27.92;14.77;;;;;;;6.64;100.00;99873.16;5081074;28;20036;-78
2022/01/02 06:13:22;;;;;;;28.63;16.75;;;;;;;6.67;100.00;99873.16;5080897;28;20047;-77
2022/01/02 06:16:08;;;;;;;30.33;17.90;;;;;;;6.62;100.00;99862.75;5081138;28;20036;-78
2022/01/02 06:18:53;;;;;;;34.15;19.40;;;;;;;6.58;100.00;99858.44;5097773;28;20117;-77
2022/01/02 06:21:38;;;;;;;40.65;22.55;;;;;;;6.47;100.00;99836.88;5109536;28;20424;-77
2022/01/02 06:24:22;;;;;;;41.50;23.08;;;;;;;6.47;100.00;99832.53;5109490;28;20040;-77
2022/01/02 06:27:06;;;;;;;39.28;24.48;;;;;;;6.45;100.00;99836.00;5080892;28;20044;-77
2022/01/02 06:29:51;;;;;;;42.67;23.58;;;;;;;6.40;100.00;99838.66;5080862;28;20101;-77
2022/01/02 06:32:35;;;;;;;46.40;24.58;;;;;;;6.36;100.00;99847.34;5080748;28;20051;-77
2022/01/02 06:35:31;;;;;;;52.17;25.80;;;;;;;6.37;100.00;99843.88;5080901;28;20044;-78
2022/01/02 06:38:19;;;;;;;55.00;24.35;;;;;;;6.31;100.00;99817.91;5080943;28;20070;-78
2022/01/02 06:41:07;;;;;;;53.30;28.75;;;;;;;6.26;100.00;99804.06;5080862;28;20119;-77
2022/01/02 06:43:53;;;;;;;48.35;26.58;;;;;;;6.25;100.00;99808.41;5080754;28;20322;-77
2022/01/02 06:46:40;;;;;;;40.88;23.15;;;;;;;6.20;100.00;99793.69;5080618;28;20071;-78
2022/01/02 06:49:25;;;;;;;46.28;23.75;;;;;;;6.09;100.00;99794.66;5080540;28;20353;-78
2022/01/02 06:52:10;;;;;;;47.42;25.77;;;;;;;6.16;100.00;99800.66;5080420;28;20071;-78
2022/01/02 06:54:55;;;;;;;36.75;22.88;;;;;;;6.12;100.00;99809.38;5080643;28;20044;-77
2022/01/02 06:57:40;;;;;;;35.95;21.85;;;;;;;6.06;100.00;99815.47;5080188;28;20051;-78
2022/01/02 07:00:24;;;;;;;46.70;23.80;;;;;;;5.98;100.00;99821.59;5096978;28;20052;-78
2022/01/02 07:03:09;;;;;;;46.47;24.20;;;;;;;5.97;100.00;99819.88;5081216;28;20405;-77
2022/01/02 07:05:55;;;;;;;41.63;21.45;;;;;;;5.94;100.00;99815.53;5081093;28;20049;-77
2022/01/02 07:08:39;;;;;;;36.10;19.52;;;;;;;5.93;100.00;99815.56;5080690;28;20035;-77
2022/01/02 07:11:24;;;;;;;34.55;18.35;;;;;;;5.86;100.00;99810.38;5096562;28;20036;-77
2022/01/02 07:14:08;;;;;;;53.33;26.27;;;;;;;5.83;100.00;99807.78;5113450;28;20048;-77
2022/01/02 07:16:57;;;;;;;38.92;22.52;;;;;;;5.81;100.00;99806.06;5084548;28;20044;-77
2022/01/02 07:19:41;;;;;;;45.15;21.80;;;;;;;5.84;100.00;99816.44;5084528;28;20071;-77
2022/01/02 07:22:26;;;;;;;58.90;25.90;;;;;;;5.82;100.00;99810.41;5084740;28;20044;-77
2022/01/02 07:25:10;;;;;;;55.50;27.85;;;;;;;5.83;100.00;99812.13;5084020;28;20052;-77
2022/01/02 07:27:55;;;;;;;51.08;26.63;;;;;;;5.78;100.00;99804.34;5098421;28;20317;-77
2022/01/02 07:30:39;;;;;;;41.22;23.00;;;;;;;5.85;100.00;99802.59;5067272;28;20355;-77
2022/01/02 07:33:24;;;;;;;33.60;22.55;;;;;;;5.87;100.00;99808.63;5083954;28;20333;-77
2022/01/02 07:36:08;;;;;;;51.05;23.05;;;;;;;5.94;100.00;99804.28;5099459;28;20040;-77
2022/01/02 07:38:52;;;;;;;92.43;34.63;;;;;;;5.98;100.00;99800.78;5106513;28;20436;-77
2022/01/02 07:41:37;;;;;;;107.50;38.88;;;;;;;6.01;100.00;99795.56;5104615;28;20035;-78
2022/01/02 07:44:21;;;;;;;83.05;34.75;;;;;;;6.06;100.00;99776.47;5104579;28;20411;-77
2022/01/02 07:47:06;;;;;;;117.53;42.92;;;;;;;6.15;100.00;99772.94;5119659;28;20119;-77
2022/01/02 07:49:51;;;;;;;99.75;39.40;;;;;;;6.08;100.00;99766.06;5104003;28;20043;-77
2022/01/02 07:52:35;;;;;;;91.20;37.65;;;;;;;6.22;100.00;99773.75;5118692;28;20052;-77
2022/01/02 07:55:20;;;;;;;53.75;27.40;;;;;;;6.22;100.00;99773.75;5119464;28;20051;-78
2022/01/02 07:58:04;;;;;;;41.47;22.63;;;;;;;6.33;100.00;99762.38;5089819;28;20040;-77
2022/01/02 08:00:50;;;;;;;44.35;22.63;;;;;;;6.40;100.00;99757.13;5089800;28;20039;-77
2022/01/02 08:03:34;;;;;;;54.35;25.67;;;;;;;6.37;100.00;99755.44;5089658;28;20051;-77
2022/01/02 08:06:18;;;;;;;55.55;23.95;;;;;;;6.46;100.00;99755.31;5132669;27;20035;-77
2022/01/02 08:09:03;;;;;;;52.75;24.38;;;;;;;6.54;100.00;99750.91;5103543;28;20040;-77
2022/01/02 08:11:47;;;;;;;52.63;24.85;;;;;;;6.62;100.00;99747.38;5132898;27;20046;-78
2022/01/02 08:14:32;;;;;;;33.47;19.35;;;;;;;6.72;100.00;99749.88;5103480;28;20043;-78
2022/01/02 08:17:16;;;;;;;27.30;15.82;;;;;;;6.82;100.00;99740.22;5103405;28;20039;-77
2022/01/02 08:20:00;;;;;;;27.83;15.98;;;;;;;6.95;100.00;99731.38;5089177;28;20047;-78
2022/01/02 08:22:45;;;;;;;22.95;13.77;;;;;;;7.12;100.00;99728.59;5103572;28;20108;-78
2022/01/02 08:25:29;;;;;;;25.30;14.35;;;;;;;7.24;100.00;99741.44;5118389;28;20044;-78
2022/01/02 08:28:14;;;;;;;73.35;30.20;;;;;;;7.35;100.00;99743.94;5118559;28;20044;-78
2022/01/02 08:30:59;;;;;;;36.70;17.23;;;;;;;7.53;100.00;99742.81;5103384;28;20044;-78
2022/01/02 08:33:43;;;;;;;23.75;15.65;;;;;;;7.69;100.00;99744.31;5118163;28;20042;-77
2022/01/02 08:36:27;;;;;;;26.90;14.43;;;;;;;7.70;100.00;99734.75;5103597;28;20035;-78
2022/01/02 08:39:12;;;;;;;20.85;12.40;;;;;;;7.96;100.00;99743.06;5088803;28;20420;-77
2022/01/02 08:41:56;;;;;;;20.60;12.15;;;;;;;8.22;100.00;99739.16;5089175;28;20115;-78
2022/01/02 08:44:43;;;;;;;24.05;12.40;;;;;;;8.39;100.00;99749.38;5103488;28;20390;-78
2022/01/02 08:47:28;;;;;;;23.30;13.77;;;;;;;8.55;100.00;99757.81;5103153;28;20043;-78
2022/01/02 08:50:12;;;;;;;25.08;15.40;;;;;;;8.68;100.00;99750.59;5117845;28;20420;-78
2022/01/02 08:52:57;;;;;;;30.35;16.75;;;;;;;8.61;100.00;99736.78;5102410;28;20044;-78
2022/01/02 08:55:41;;;;;;;22.10;12.95;;;;;;;8.69;100.00;99732.31;5102745;28;20123;-77
2022/01/02 08:58:26;;;;;;;26.33;13.93;;;;;;;8.76;100.00;99727.81;5102858;28;20043;-78
2022/01/02 09:01:10;;;;;;;24.08;13.32;;;;;;;8.83;100.00;99719.84;5117778;28;20474;-78
2022/01/02 09:03:54;;;;;;;20.10;13.18;;;;;;;9.01;100.00;99717.75;5102787;28;20051;-78
2022/01/02 09:06:39;;;;;;;22.50;15.00;;;;;;;9.18;100.00;99712.19;5117697;28;20044;-78
2022/01/02 09:09:24;;;;;;;21.85;13.30;;;;;;;9.16;100.00;99711.34;5117511;28;20051;-78
2022/01/02 09:12:09;;;;;;;21.13;12.40;;;;;;;9.22;100.00;99711.22;5118023;28;20043;-78
2022/01/02 09:14:53;;;;;;;19.45;11.38;;;;;;;9.25;100.00;99705.94;5117476;28;20035;-77
2022/01/02 09:17:38;;;;;;;25.70;15.27;;;;;;;9.33;100.00;99702.28;5102284;28;20043;-78
2022/01/02 09:20:23;;;;;;;31.35;18.35;;;;;;;9.25;100.00;99692.88;5102676;28;20055;-77
2022/01/02 09:23:07;;;;;;;27.35;18.77;;;;;;;9.24;100.00;99701.63;5117451;28;20051;-78
2022/01/02 09:25:51;;;;;;;25.55;16.63;;;;;;;9.16;100.00;99711.34;5117639;28;20063;-78
2022/01/02 09:28:36;;;;;;;25.73;16.23;;;;;;;9.19;100.00;99708.69;5087685;28;20363;-78
2022/01/02 09:31:21;;;;;;;30.77;19.60;;;;;;;9.19;100.00;99704.31;5116957;28;20060;-78
2022/01/02 09:34:07;;;;;;;25.05;15.10;;;;;;;9.20;100.00;99689.50;5087097;28;20354;-78
2022/01/02 09:36:51;;;;;;;17.58;12.65;;;;;;;9.39;100.00;99689.94;5087908;28;20446;-78
2022/01/02 09:39:36;;;;;;;21.45;12.82;;;;;;;9.36;100.00;99675.22;5116830;28;20036;-77
2022/01/02 09:42:21;;;;;;;18.92;13.32;;;;;;;9.31;100.00;99667.47;5102181;28;20428;-78
2022/01/02 09:45:06;;;;;;;23.48;17.13;;;;;;;9.33;100.00;99638.69;5101763;28;20109;-78
2022/01/02 09:47:52;;;;;;;26.10;18.10;;;;;;;9.50;100.00;99665.28;5087502;28;20061;-78
2022/01/02 09:50:39;;;;;;;35.08;23.35;;;;;;;9.47;100.00;99662.75;5116984;28;20051;-78
2022/01/02 09:53:23;;;;;;;25.90;17.95;;;;;;;9.52;100.00;99667.84;5101922;28;20043;-77
2022/01/02 09:56:09;;;;;;;20.75;12.88;;;;;;;9.61;100.00;99665.03;5101867;28;20047;-77
2022/01/02 09:58:54;;;;;;;21.00;13.65;;;;;;;9.55;100.00;99654.72;5087529;28;20043;-77
2022/01/02 10:01:39;;;;;;;16.35;10.77;;;;;;;9.51;100.00;99661.78;5087151;28;20040;-78
2022/01/02 10:04:33;;;;;;;17.00;10.18;;;;;;;9.60;100.00;99668.56;5116622;28;20043;-78
2022/01/02 10:07:29;;;;;;;17.02;10.02;;;;;;;9.56;100.00;99665.16;5101352;28;20043;-78
2022/01/02 10:10:13;;;;;;;16.27;11.20;;;;;;;9.68;100.00;99652.69;5087473;28;20093;-78
2022/01/02 10:13:03;;;;;;;17.77;12.30;;;;;;;9.81;100.00;99634.06;5101722;28;20047;-78
2022/01/02 10:15:47;;;;;;;17.23;10.05;;;;;;;9.81;100.00;99634.06;5101695;28;20035;-78
2022/01/02 10:18:32;;;;;;;18.13;11.13;;;;;;;9.94;100.00;99634.59;5101938;28;20039;-78
2022/01/02 10:21:36;;;;;;;16.38;8.60;;;;;;;9.94;100.00;99638.97;5101667;28;20043;-78
2022/01/02 10:24:27;;;;;;;14.25;8.27;;;;;;;9.92;100.00;99640.78;5101869;28;20043;-78
2022/01/02 10:27:17;;;;;;;14.55;8.98;;;;;;;9.94;100.00;99652.03;5116359;28;20445;-78
2022/01/02 10:30:03;;;;;;;18.08;9.90;;;;;;;9.89;100.00;99649.56;5101363;28;20105;-78
2022/01/02 10:32:47;;;;;;;23.52;13.35;;;;;;;9.88;100.00;99632.16;5116290;28;20039;-78
2022/01/02 10:35:35;;;;;;;40.28;29.30;;;;;;;9.90;100.00;99624.25;5116357;28;20050;-78
2022/01/02 10:38:19;;;;;;;30.35;22.45;;;;;;;9.77;100.00;99624.53;5101250;28;20044;-77
2022/01/02 10:41:04;;;;;;;22.70;14.30;;;;;;;9.79;100.00;99630.59;5101223;28;20112;-78
2022/01/02 10:43:48;;;;;;;14.88;9.10;;;;;;;9.73;100.00;99620.28;5101369;28;20336;-77
2022/01/02 10:46:32;;;;;;;15.07;8.57;;;;;;;9.83;100.00;99627.00;5118543;28;20040;-77
2022/01/02 10:49:16;;;;;;;13.73;8.43;;;;;;;9.80;100.00;99623.63;5120186;28;20036;-78
2022/01/02 10:52:24;;;;;;;39.85;30.13;;;;;;;9.82;100.00;99614.84;5090902;28;20072;-77
2022/01/02 10:55:24;;;;;;;64.47;56.08;;;;;;;9.83;100.00;99597.38;5090576;28;20424;-78
2022/01/02 10:58:08;;;;;;;47.85;31.20;;;;;;;9.89;100.00;99599.00;5120023;28;20096;-78
2022/01/02 11:01:00;;;;;;;68.00;43.47;;;;;;;9.94;100.00;99589.25;5105165;28;20122;-78
2022/01/02 11:03:46;;;;;;;148.85;90.93;;;;;;;9.99;100.00;99600.47;5119887;28;20043;-77
2022/01/02 11:06:33;;;;;;;93.75;58.83;;;;;;;10.13;100.00;99587.88;5104868;28;20032;-78
2022/01/02 11:09:20;;;;;;;60.80;42.55;;;;;;;10.11;100.00;99579.22;5090998;28;20043;-78
2022/01/02 11:12:05;;;;;;;43.38;33.85;;;;;;;10.25;100.00;99576.22;5120086;28;20117;-78
2022/01/02 11:14:50;;;;;;;34.72;26.90;;;;;;;10.20;100.00;99547.53;5120212;28;20109;-78
2022/01/02 11:17:36;;;;;;;20.75;14.00;;;;;;;10.27;100.00;99564.84;5105213;28;20118;-78
2022/01/02 11:20:31;;;;;;;20.42;13.35;;;;;;;10.32;100.00;99569.09;5105073;28;20127;-78
2022/01/02 11:23:32;;;;;;;21.48;12.68;;;;;;;10.22;100.00;99571.06;5104666;28;20066;-78
2022/01/02 11:26:56;;;;;;;20.90;12.43;;;;;;;10.29;100.00;99565.66;5105077;28;20036;-77
2022/01/02 11:29:40;;;;;;;19.20;13.38;;;;;;;10.21;100.00;99530.97;5090593;28;20054;-78
2022/01/02 11:32:26;;;;;;;20.13;12.48;;;;;;;10.31;100.00;99543.81;5119396;28;20420;-78
2022/01/02 11:35:27;;;;;;;22.45;15.52;;;;;;;10.29;100.00;99530.75;5119935;28;20043;-78
2022/01/02 11:38:14;;;;;;;23.48;16.25;;;;;;;10.24;100.00;99519.56;5104160;28;20047;-77
2022/01/02 11:40:59;;;;;;;39.97;29.80;;;;;;;10.12;100.00;99519.88;5104402;28;20054;-78
2022/01/02 11:43:51;;;;;;;58.83;41.55;;;;;;;10.27;100.00;99522.13;5133405;27;20044;-77
2022/01/02 11:46:50;;;;;;;25.98;17.60;;;;;;;10.27;100.00;99517.72;5104063;28;20039;-78
2022/01/02 11:49:38;;;;;;;17.80;10.98;;;;;;;10.09;100.00;99528.66;5117056;28;20100;-78
2022/01/02 11:52:23;;;;;;;16.48;9.85;;;;;;;10.19;100.00;99506.56;5101663;28;20436;-78
2022/01/02 11:55:16;;;;;;;16.75;11.20;;;;;;;10.24;100.00;99520.41;5101869;28;20036;-78
2022/01/02 11:58:00;;;;;;;22.98;12.75;;;;;;;10.16;100.00;99504.03;5086869;28;20428;-78
2022/01/02 12:00:47;;;;;;;29.35;17.05;;;;;;;10.02;100.00;99514.91;5102032;28;20100;-78
2022/01/02 12:03:40;;;;;;;28.05;16.63;;;;;;;10.19;100.00;99503.97;5116918;28;20044;-78
2022/01/02 12:06:33;;;;;;;;;;;;;;;10.12;100.00;99504.19;5117362;28;20406;-78
2022/01/02 12:09:37;;;;;;;21.85;12.43;;;;;;;9.96;100.00;99501.13;5116886;28;19920;-78
2022/01/02 12:12:22;;;;;;;24.73;13.10;;;;;;;9.98;100.00;99478.41;5087365;28;20035;-78
2022/01/02 12:15:06;;;;;;;21.52;12.45;;;;;;;10.08;100.00;99506.03;5101590;28;20044;-78
2022/01/02 12:18:06;;;;;;;25.08;13.30;;;;;;;10.03;100.00;99494.81;5103842;28;20420;-78
2022/01/02 12:20:51;;;;;;;32.65;16.95;;;;;;;10.10;100.00;99495.50;5103862;28;20043;-78
2022/01/02 12:23:43;;;;;;;112.43;50.72;;;;;;;10.10;100.00;99498.13;5118383;28;20050;-78
2022/01/02 12:26:34;;;;;;;52.40;28.15;;;;;;;9.98;100.00;99501.97;5088910;28;20119;-78
2022/01/02 12:29:24;;;;;;;31.90;17.23;;;;;;;9.99;100.00;99490.59;5103214;28;20058;-77
2022/01/02 12:32:10;;;;;;;30.55;14.88;;;;;;;10.08;100.00;99500.81;5118520;28;20039;-78
2022/01/02 12:34:57;;;;;;;48.45;22.40;;;;;;;9.87;100.00;99480.44;5103306;28;20043;-78
2022/01/02 12:37:42;;;;;;;78.25;34.50;;;;;;;10.05;100.00;99488.66;5103057;28;20043;-78
2022/01/02 12:40:35;;;;;;;44.53;22.60;;;;;;;10.03;100.00;99489.59;5103224;28;20043;-78
2022/01/02 12:43:23;;;;;;;82.38;51.05;;;;;;;9.83;100.00;99483.16;5118521;28;20067;-78
2022/01/02 12:46:08;;;;;;;52.78;35.78;;;;;;;9.94;100.00;99463.69;5102858;28;20044;-78